sensor_id;sensor_type;location;lat;lon;timestamp;P1;durP1;ratioP1;P2;durP2;ratioP2
16626;SDS011;8427;52.204;7.202;2023-11-21T00:00:20;47.70;;;15.55;;
16626;SDS011;8427;52.204;7.202;2023-11-21T00:02:48;48.17;;;15.00;;
16626;SDS011;8427;52.204;7.202;2023-11-21T00:05:16;48.03;;;15.65;;
16626;SDS011;8427;52.204;7.202;2023-11-21T00:07:44;51.13;;;15.02;;
16626;SDS011;8427;52.204;7.202;2023-11-21T00:10:12;53.08;;;15.68;;
16626;SDS011;8427;52.204;7.202;2023-11-21T00:12:43;54.00;;;16.08;;
16626;SDS011;8427;52.204;7.202;2023-11-21T00:15:14;52.63;;;16.08;;
16626;SDS011;8427;52.204;7.202;2023-11-21T00:17:42;54.38;;;15.60;;
16626;SDS011;8427;52.204;7.202;2023-11-21T00:20:10;64.70;;;15.98;;
16626;SDS011;8427;52.204;7.202;2023-11-21T00:22:40;53.72;;;15.55;;
16626;SDS011;8427;52.204;7.202;2023-11-21T00:25:09;69.43;;;17.02;;
16626;SDS011;8427;52.204;7.202;2023-11-21T00:27:37;67.63;;;17.23;;
16626;SDS011;8427;52.204;7.202;2023-11-21T00:30:07;61.05;;;16.77;;
16626;SDS011;8427;52.204;7.202;2023-11-21T00:32:36;60.63;;;15.52;;
16626;SDS011;8427;52.204;7.202;2023-11-21T00:35:04;63.42;;;15.55;;
16626;SDS011;8427;52.204;7.202;2023-11-21T00:37:33;62.63;;;16.00;;
16626;SDS011;8427;52.204;7.202;2023-11-21T00:40:01;60.63;;;16.65;;
16626;SDS011;8427;52.204;7.202;2023-11-21T00:42:31;61.80;;;16.17;;
16626;SDS011;8427;52.204;7.202;2023-11-21T00:45:00;66.95;;;16.75;;
16626;SDS011;8427;52.204;7.202;2023-11-21T00:47:29;66.50;;;16.85;;
16626;SDS011;8427;52.204;7.202;2023-11-21T00:52:25;62.30;;;14.90;;
16626;SDS011;8427;52.204;7.202;2023-11-21T00:54:53;57.20;;;15.27;;
16626;SDS011;8427;52.204;7.202;2023-11-21T00:57:21;55.08;;;14.48;;
16626;SDS011;8427;52.204;7.202;2023-11-21T00:59:49;67.65;;;15.68;;
16626;SDS011;8427;52.204;7.202;2023-11-21T01:02:17;65.18;;;15.98;;
16626;SDS011;8427;52.204;7.202;2023-11-21T01:04:46;55.92;;;14.88;;
16626;SDS011;8427;52.204;7.202;2023-11-21T01:09:42;54.45;;;13.50;;
16626;SDS011;8427;52.204;7.202;2023-11-21T01:12:10;64.75;;;15.93;;
16626;SDS011;8427;52.204;7.202;2023-11-21T01:14:38;59.50;;;13.73;;
16626;SDS011;8427;52.204;7.202;2023-11-21T01:17:07;60.80;;;14.35;;
16626;SDS011;8427;52.204;7.202;2023-11-21T01:19:35;65.40;;;15.23;;
16626;SDS011;8427;52.204;7.202;2023-11-21T01:22:05;69.85;;;16.08;;
16626;SDS011;8427;52.204;7.202;2023-11-21T01:27:00;64.15;;;14.57;;
16626;SDS011;8427;52.204;7.202;2023-11-21T01:29:28;60.03;;;15.63;;
16626;SDS011;8427;52.204;7.202;2023-11-21T01:31:56;62.45;;;14.85;;
16626;SDS011;8427;52.204;7.202;2023-11-21T01:34:24;54.45;;;13.80;;
16626;SDS011;8427;52.204;7.202;2023-11-21T01:36:52;56.60;;;14.50;;
16626;SDS011;8427;52.204;7.202;2023-11-21T01:39:21;63.38;;;14.73;;
16626;SDS011;8427;52.204;7.202;2023-11-21T01:41:50;56.53;;;13.85;;
16626;SDS011;8427;52.204;7.202;2023-11-21T01:44:18;60.80;;;13.77;;
16626;SDS011;8427;52.204;7.202;2023-11-21T01:46:46;63.92;;;15.45;;
16626;SDS011;8427;52.204;7.202;2023-11-21T01:49:15;67.30;;;15.45;;
16626;SDS011;8427;52.204;7.202;2023-11-21T01:51:44;61.10;;;15.05;;
16626;SDS011;8427;52.204;7.202;2023-11-21T01:54:15;71.28;;;15.57;;
16626;SDS011;8427;52.204;7.202;2023-11-21T01:59:15;58.13;;;14.98;;
16626;SDS011;8427;52.204;7.202;2023-11-21T02:01:46;59.10;;;14.45;;
16626;SDS011;8427;52.204;7.202;2023-11-21T02:04:17;67.68;;;14.55;;
16626;SDS011;8427;52.204;7.202;2023-11-21T02:06:46;57.92;;;14.63;;
16626;SDS011;8427;52.204;7.202;2023-11-21T02:09:14;67.38;;;16.10;;
16626;SDS011;8427;52.204;7.202;2023-11-21T02:11:42;64.45;;;15.70;;
16626;SDS011;8427;52.204;7.202;2023-11-21T02:14:11;64.10;;;15.13;;
16626;SDS011;8427;52.204;7.202;2023-11-21T02:16:40;66.65;;;15.63;;
16626;SDS011;8427;52.204;7.202;2023-11-21T02:19:10;60.50;;;14.82;;
16626;SDS011;8427;52.204;7.202;2023-11-21T02:21:40;63.58;;;15.63;;
16626;SDS011;8427;52.204;7.202;2023-11-21T02:24:10;63.17;;;15.30;;
16626;SDS011;8427;52.204;7.202;2023-11-21T02:26:38;69.43;;;15.82;;
16626;SDS011;8427;52.204;7.202;2023-11-21T02:29:07;74.25;;;16.70;;
16626;SDS011;8427;52.204;7.202;2023-11-21T02:31:38;67.85;;;15.85;;
16626;SDS011;8427;52.204;7.202;2023-11-21T02:34:14;62.08;;;15.95;;
16626;SDS011;8427;52.204;7.202;2023-11-21T02:36:42;64.40;;;15.88;;
16626;SDS011;8427;52.204;7.202;2023-11-21T02:39:11;68.25;;;15.73;;
16626;SDS011;8427;52.204;7.202;2023-11-21T02:41:40;71.22;;;16.58;;
16626;SDS011;8427;52.204;7.202;2023-11-21T02:44:08;66.72;;;17.08;;
16626;SDS011;8427;52.204;7.202;2023-11-21T02:46:36;72.60;;;18.27;;
16626;SDS011;8427;52.204;7.202;2023-11-21T02:49:05;69.88;;;17.23;;
16626;SDS011;8427;52.204;7.202;2023-11-21T02:51:35;66.97;;;17.40;;
16626;SDS011;8427;52.204;7.202;2023-11-21T02:54:05;77.80;;;17.13;;
16626;SDS011;8427;52.204;7.202;2023-11-21T02:56:36;68.80;;;17.30;;
16626;SDS011;8427;52.204;7.202;2023-11-21T02:59:03;74.93;;;18.40;;
16626;SDS011;8427;52.204;7.202;2023-11-21T03:01:31;62.40;;;16.88;;
16626;SDS011;8427;52.204;7.202;2023-11-21T03:03:59;66.40;;;15.93;;
16626;SDS011;8427;52.204;7.202;2023-11-21T03:06:28;74.75;;;17.15;;
16626;SDS011;8427;52.204;7.202;2023-11-21T03:08:56;70.85;;;16.88;;
16626;SDS011;8427;52.204;7.202;2023-11-21T03:11:23;66.65;;;15.98;;
16626;SDS011;8427;52.204;7.202;2023-11-21T03:13:53;62.65;;;15.57;;
16626;SDS011;8427;52.204;7.202;2023-11-21T03:16:20;69.57;;;17.13;;
16626;SDS011;8427;52.204;7.202;2023-11-21T03:18:48;63.10;;;15.70;;
16626;SDS011;8427;52.204;7.202;2023-11-21T03:21:17;65.32;;;15.90;;
16626;SDS011;8427;52.204;7.202;2023-11-21T03:23:45;60.05;;;15.52;;
16626;SDS011;8427;52.204;7.202;2023-11-21T03:26:13;60.53;;;16.40;;
16626;SDS011;8427;52.204;7.202;2023-11-21T03:28:41;63.03;;;16.85;;
16626;SDS011;8427;52.204;7.202;2023-11-21T03:31:10;65.78;;;16.67;;
16626;SDS011;8427;52.204;7.202;2023-11-21T03:33:38;63.38;;;16.75;;
16626;SDS011;8427;52.204;7.202;2023-11-21T03:36:06;59.85;;;17.88;;
16626;SDS011;8427;52.204;7.202;2023-11-21T03:38:35;65.45;;;17.83;;
16626;SDS011;8427;52.204;7.202;2023-11-21T03:41:04;64.13;;;17.63;;
16626;SDS011;8427;52.204;7.202;2023-11-21T03:43:33;70.05;;;18.42;;
16626;SDS011;8427;52.204;7.202;2023-11-21T03:46:01;65.82;;;17.70;;
16626;SDS011;8427;52.204;7.202;2023-11-21T03:48:31;75.25;;;18.67;;
16626;SDS011;8427;52.204;7.202;2023-11-21T03:50:59;73.95;;;18.65;;
16626;SDS011;8427;52.204;7.202;2023-11-21T03:53:27;68.88;;;19.00;;
16626;SDS011;8427;52.204;7.202;2023-11-21T03:55:55;70.80;;;19.10;;
16626;SDS011;8427;52.204;7.202;2023-11-21T03:58:23;84.00;;;19.15;;
16626;SDS011;8427;52.204;7.202;2023-11-21T04:00:51;73.28;;;18.63;;
16626;SDS011;8427;52.204;7.202;2023-11-21T04:03:19;66.90;;;17.75;;
16626;SDS011;8427;52.204;7.202;2023-11-21T04:05:48;83.70;;;20.02;;
16626;SDS011;8427;52.204;7.202;2023-11-21T04:08:16;73.20;;;18.60;;
16626;SDS011;8427;52.204;7.202;2023-11-21T04:10:44;77.30;;;18.98;;
16626;SDS011;8427;52.204;7.202;2023-11-21T04:13:12;74.88;;;18.85;;
16626;SDS011;8427;52.204;7.202;2023-11-21T04:15:40;78.82;;;19.30;;
16626;SDS011;8427;52.204;7.202;2023-11-21T04:18:07;79.85;;;18.58;;
16626;SDS011;8427;52.204;7.202;2023-11-21T04:20:35;81.10;;;18.63;;
16626;SDS011;8427;52.204;7.202;2023-11-21T04:23:05;75.55;;;19.02;;
16626;SDS011;8427;52.204;7.202;2023-11-21T04:25:33;77.88;;;18.38;;
16626;SDS011;8427;52.204;7.202;2023-11-21T04:28:00;75.97;;;18.80;;
16626;SDS011;8427;52.204;7.202;2023-11-21T04:30:28;76.35;;;18.20;;
16626;SDS011;8427;52.204;7.202;2023-11-21T04:32:57;73.85;;;18.58;;
16626;SDS011;8427;52.204;7.202;2023-11-21T04:35:24;68.57;;;18.83;;
16626;SDS011;8427;52.204;7.202;2023-11-21T04:37:52;78.72;;;18.30;;
16626;SDS011;8427;52.204;7.202;2023-11-21T04:40:22;81.93;;;19.23;;
16626;SDS011;8427;52.204;7.202;2023-11-21T04:42:50;83.40;;;19.50;;
16626;SDS011;8427;52.204;7.202;2023-11-21T04:45:18;84.97;;;20.25;;
16626;SDS011;8427;52.204;7.202;2023-11-21T04:47:45;87.95;;;20.25;;
16626;SDS011;8427;52.204;7.202;2023-11-21T04:50:13;85.05;;;19.90;;
16626;SDS011;8427;52.204;7.202;2023-11-21T04:52:41;77.03;;;20.02;;
16626;SDS011;8427;52.204;7.202;2023-11-21T04:55:09;75.47;;;19.13;;
16626;SDS011;8427;52.204;7.202;2023-11-21T04:57:39;76.45;;;19.45;;
16626;SDS011;8427;52.204;7.202;2023-11-21T05:00:08;77.70;;;18.70;;
16626;SDS011;8427;52.204;7.202;2023-11-21T05:05:05;74.03;;;17.73;;
16626;SDS011;8427;52.204;7.202;2023-11-21T05:07:36;77.07;;;18.15;;
16626;SDS011;8427;52.204;7.202;2023-11-21T05:12:39;75.00;;;17.42;;
16626;SDS011;8427;52.204;7.202;2023-11-21T05:17:37;80.50;;;18.98;;
16626;SDS011;8427;52.204;7.202;2023-11-21T05:20:11;77.57;;;18.33;;
16626;SDS011;8427;52.204;7.202;2023-11-21T05:22:40;85.90;;;20.08;;
16626;SDS011;8427;52.204;7.202;2023-11-21T05:25:08;86.18;;;20.20;;
16626;SDS011;8427;52.204;7.202;2023-11-21T05:27:37;82.95;;;19.55;;
16626;SDS011;8427;52.204;7.202;2023-11-21T05:30:07;88.15;;;20.45;;
16626;SDS011;8427;52.204;7.202;2023-11-21T05:32:38;85.65;;;20.42;;
16626;SDS011;8427;52.204;7.202;2023-11-21T05:35:06;86.72;;;20.23;;
16626;SDS011;8427;52.204;7.202;2023-11-21T05:37:38;82.38;;;20.05;;
16626;SDS011;8427;52.204;7.202;2023-11-21T05:40:06;86.78;;;19.98;;
16626;SDS011;8427;52.204;7.202;2023-11-21T05:42:36;78.00;;;19.98;;
16626;SDS011;8427;52.204;7.202;2023-11-21T05:45:06;85.97;;;21.08;;
16626;SDS011;8427;52.204;7.202;2023-11-21T05:47:37;80.15;;;20.13;;
16626;SDS011;8427;52.204;7.202;2023-11-21T05:50:07;89.28;;;21.10;;
16626;SDS011;8427;52.204;7.202;2023-11-21T05:52:38;87.20;;;21.05;;
16626;SDS011;8427;52.204;7.202;2023-11-21T05:55:07;92.15;;;21.30;;
16626;SDS011;8427;52.204;7.202;2023-11-21T05:57:35;93.45;;;22.38;;
16626;SDS011;8427;52.204;7.202;2023-11-21T06:00:08;93.88;;;21.80;;
16626;SDS011;8427;52.204;7.202;2023-11-21T06:02:38;99.07;;;22.42;;
16626;SDS011;8427;52.204;7.202;2023-11-21T06:05:07;86.95;;;21.98;;
16626;SDS011;8427;52.204;7.202;2023-11-21T06:07:36;100.93;;;23.83;;
16626;SDS011;8427;52.204;7.202;2023-11-21T06:10:06;115.75;;;24.40;;
16626;SDS011;8427;52.204;7.202;2023-11-21T06:12:37;106.88;;;22.52;;
16626;SDS011;8427;52.204;7.202;2023-11-21T06:15:08;117.22;;;24.33;;
16626;SDS011;8427;52.204;7.202;2023-11-21T06:17:39;108.63;;;23.50;;
16626;SDS011;8427;52.204;7.202;2023-11-21T06:20:09;111.20;;;23.85;;
16626;SDS011;8427;52.204;7.202;2023-11-21T06:22:41;100.22;;;23.08;;
16626;SDS011;8427;52.204;7.202;2023-11-21T06:25:10;113.82;;;23.60;;
16626;SDS011;8427;52.204;7.202;2023-11-21T06:27:41;120.18;;;24.75;;
16626;SDS011;8427;52.204;7.202;2023-11-21T06:30:12;112.70;;;24.27;;
16626;SDS011;8427;52.204;7.202;2023-11-21T06:32:42;108.45;;;23.90;;
16626;SDS011;8427;52.204;7.202;2023-11-21T06:35:12;98.88;;;23.02;;
16626;SDS011;8427;52.204;7.202;2023-11-21T06:37:43;115.40;;;23.10;;
16626;SDS011;8427;52.204;7.202;2023-11-21T06:40:15;108.45;;;23.50;;
16626;SDS011;8427;52.204;7.202;2023-11-21T06:42:45;113.65;;;24.63;;
16626;SDS011;8427;52.204;7.202;2023-11-21T06:45:14;102.53;;;23.08;;
16626;SDS011;8427;52.204;7.202;2023-11-21T06:47:43;104.50;;;24.02;;
16626;SDS011;8427;52.204;7.202;2023-11-21T06:50:11;115.53;;;24.97;;
16626;SDS011;8427;52.204;7.202;2023-11-21T06:52:39;111.18;;;24.75;;
16626;SDS011;8427;52.204;7.202;2023-11-21T06:55:07;105.25;;;23.58;;
16626;SDS011;8427;52.204;7.202;2023-11-21T06:57:36;106.10;;;23.23;;
16626;SDS011;8427;52.204;7.202;2023-11-21T07:00:04;114.80;;;24.80;;
16626;SDS011;8427;52.204;7.202;2023-11-21T07:02:36;103.00;;;23.02;;
16626;SDS011;8427;52.204;7.202;2023-11-21T07:05:05;108.95;;;23.63;;
16626;SDS011;8427;52.204;7.202;2023-11-21T07:07:34;111.75;;;24.55;;
16626;SDS011;8427;52.204;7.202;2023-11-21T07:12:31;101.40;;;22.52;;
16626;SDS011;8427;52.204;7.202;2023-11-21T07:15:00;90.97;;;21.42;;
16626;SDS011;8427;52.204;7.202;2023-11-21T07:17:28;80.13;;;21.23;;
16626;SDS011;8427;52.204;7.202;2023-11-21T07:19:59;79.63;;;20.33;;
16626;SDS011;8427;52.204;7.202;2023-11-21T07:24:54;83.57;;;20.83;;
16626;SDS011;8427;52.204;7.202;2023-11-21T07:27:24;91.57;;;21.40;;
16626;SDS011;8427;52.204;7.202;2023-11-21T07:29:51;92.82;;;21.63;;
16626;SDS011;8427;52.204;7.202;2023-11-21T07:32:19;93.40;;;22.00;;
16626;SDS011;8427;52.204;7.202;2023-11-21T07:34:47;90.28;;;21.20;;
16626;SDS011;8427;52.204;7.202;2023-11-21T07:37:16;84.80;;;21.45;;
16626;SDS011;8427;52.204;7.202;2023-11-21T07:39:45;83.43;;;19.95;;
16626;SDS011;8427;52.204;7.202;2023-11-21T07:42:13;74.63;;;19.88;;
16626;SDS011;8427;52.204;7.202;2023-11-21T07:44:41;81.53;;;21.23;;
16626;SDS011;8427;52.204;7.202;2023-11-21T07:47:09;88.72;;;21.83;;
16626;SDS011;8427;52.204;7.202;2023-11-21T07:49:37;92.95;;;21.98;;
16626;SDS011;8427;52.204;7.202;2023-11-21T07:52:05;94.22;;;21.67;;
16626;SDS011;8427;52.204;7.202;2023-11-21T07:54:34;90.60;;;22.52;;
16626;SDS011;8427;52.204;7.202;2023-11-21T07:57:02;96.20;;;22.48;;
16626;SDS011;8427;52.204;7.202;2023-11-21T07:59:31;84.90;;;21.10;;
16626;SDS011;8427;52.204;7.202;2023-11-21T08:01:59;89.88;;;22.35;;
16626;SDS011;8427;52.204;7.202;2023-11-21T08:04:27;93.15;;;22.95;;
16626;SDS011;8427;52.204;7.202;2023-11-21T08:06:59;85.35;;;21.05;;
16626;SDS011;8427;52.204;7.202;2023-11-21T08:09:27;74.63;;;20.42;;
16626;SDS011;8427;52.204;7.202;2023-11-21T08:11:56;80.05;;;20.42;;
16626;SDS011;8427;52.204;7.202;2023-11-21T08:14:27;75.25;;;20.25;;
16626;SDS011;8427;52.204;7.202;2023-11-21T08:16:54;65.65;;;19.05;;
16626;SDS011;8427;52.204;7.202;2023-11-21T08:19:24;70.63;;;20.42;;
16626;SDS011;8427;52.204;7.202;2023-11-21T08:21:52;68.60;;;19.85;;
16626;SDS011;8427;52.204;7.202;2023-11-21T08:24:20;76.50;;;19.10;;
16626;SDS011;8427;52.204;7.202;2023-11-21T08:26:48;70.40;;;19.83;;
16626;SDS011;8427;52.204;7.202;2023-11-21T08:29:18;73.35;;;21.08;;
16626;SDS011;8427;52.204;7.202;2023-11-21T08:31:46;69.25;;;20.05;;
16626;SDS011;8427;52.204;7.202;2023-11-21T08:34:14;68.60;;;20.25;;
16626;SDS011;8427;52.204;7.202;2023-11-21T08:36:42;71.38;;;20.20;;
16626;SDS011;8427;52.204;7.202;2023-11-21T08:39:11;77.53;;;20.98;;
16626;SDS011;8427;52.204;7.202;2023-11-21T08:41:42;77.30;;;21.10;;
16626;SDS011;8427;52.204;7.202;2023-11-21T08:44:10;67.45;;;20.25;;
16626;SDS011;8427;52.204;7.202;2023-11-21T08:46:39;76.18;;;21.50;;
16626;SDS011;8427;52.204;7.202;2023-11-21T08:49:08;74.80;;;20.90;;
16626;SDS011;8427;52.204;7.202;2023-11-21T08:51:36;70.10;;;19.92;;
16626;SDS011;8427;52.204;7.202;2023-11-21T08:54:04;59.10;;;19.15;;
16626;SDS011;8427;52.204;7.202;2023-11-21T08:56:34;56.92;;;18.13;;
16626;SDS011;8427;52.204;7.202;2023-11-21T08:59:02;57.92;;;18.63;;
16626;SDS011;8427;52.204;7.202;2023-11-21T09:01:31;51.00;;;16.85;;
16626;SDS011;8427;52.204;7.202;2023-11-21T09:04:00;50.88;;;17.33;;
16626;SDS011;8427;52.204;7.202;2023-11-21T09:08:56;47.28;;;14.90;;
16626;SDS011;8427;52.204;7.202;2023-11-21T09:11:24;52.67;;;15.95;;
16626;SDS011;8427;52.204;7.202;2023-11-21T09:13:57;44.75;;;15.23;;
16626;SDS011;8427;52.204;7.202;2023-11-21T09:16:25;46.08;;;16.40;;
16626;SDS011;8427;52.204;7.202;2023-11-21T09:18:53;47.63;;;16.20;;
16626;SDS011;8427;52.204;7.202;2023-11-21T09:21:22;48.70;;;15.77;;
16626;SDS011;8427;52.204;7.202;2023-11-21T09:23:51;41.90;;;16.05;;
16626;SDS011;8427;52.204;7.202;2023-11-21T09:26:20;42.47;;;14.63;;
16626;SDS011;8427;52.204;7.202;2023-11-21T09:28:48;44.67;;;15.48;;
16626;SDS011;8427;52.204;7.202;2023-11-21T09:31:16;41.28;;;15.15;;
16626;SDS011;8427;52.204;7.202;2023-11-21T09:36:14;37.83;;;13.57;;
16626;SDS011;8427;52.204;7.202;2023-11-21T09:38:43;43.22;;;14.88;;
16626;SDS011;8427;52.204;7.202;2023-11-21T09:43:47;41.63;;;13.18;;
16626;SDS011;8427;52.204;7.202;2023-11-21T09:46:19;41.67;;;14.30;;
16626;SDS011;8427;52.204;7.202;2023-11-21T09:48:50;43.78;;;14.93;;
16626;SDS011;8427;52.204;7.202;2023-11-21T09:51:19;48.45;;;14.73;;
16626;SDS011;8427;52.204;7.202;2023-11-21T09:53:51;45.22;;;14.38;;
16626;SDS011;8427;52.204;7.202;2023-11-21T09:56:19;46.60;;;14.77;;
16626;SDS011;8427;52.204;7.202;2023-11-21T09:58:50;45.10;;;14.88;;
16626;SDS011;8427;52.204;7.202;2023-11-21T10:01:20;43.95;;;15.52;;
16626;SDS011;8427;52.204;7.202;2023-11-21T10:03:49;45.20;;;14.48;;
16626;SDS011;8427;52.204;7.202;2023-11-21T10:06:17;50.53;;;15.60;;
16626;SDS011;8427;52.204;7.202;2023-11-21T10:08:46;45.58;;;14.38;;
16626;SDS011;8427;52.204;7.202;2023-11-21T10:11:22;45.28;;;15.20;;
16626;SDS011;8427;52.204;7.202;2023-11-21T10:13:52;51.13;;;15.10;;
16626;SDS011;8427;52.204;7.202;2023-11-21T10:16:23;53.40;;;15.70;;
16626;SDS011;8427;52.204;7.202;2023-11-21T10:18:53;49.83;;;14.85;;
16626;SDS011;8427;52.204;7.202;2023-11-21T10:21:36;53.85;;;15.55;;
16626;SDS011;8427;52.204;7.202;2023-11-21T10:24:06;47.78;;;14.85;;
16626;SDS011;8427;52.204;7.202;2023-11-21T10:26:35;50.08;;;15.32;;
16626;SDS011;8427;52.204;7.202;2023-11-21T10:29:18;41.25;;;13.18;;
16626;SDS011;8427;52.204;7.202;2023-11-21T10:31:48;41.38;;;12.68;;
16626;SDS011;8427;52.204;7.202;2023-11-21T10:34:18;43.53;;;13.05;;
16626;SDS011;8427;52.204;7.202;2023-11-21T10:36:47;41.75;;;12.10;;
16626;SDS011;8427;52.204;7.202;2023-11-21T10:39:16;39.47;;;12.18;;
16626;SDS011;8427;52.204;7.202;2023-11-21T10:41:47;36.78;;;12.30;;
16626;SDS011;8427;52.204;7.202;2023-11-21T10:44:15;35.53;;;11.50;;
16626;SDS011;8427;52.204;7.202;2023-11-21T10:46:48;33.30;;;10.25;;
16626;SDS011;8427;52.204;7.202;2023-11-21T10:49:16;32.83;;;10.23;;
16626;SDS011;8427;52.204;7.202;2023-11-21T10:51:45;32.67;;;10.50;;
16626;SDS011;8427;52.204;7.202;2023-11-21T10:59:14;29.42;;;9.18;;
16626;SDS011;8427;52.204;7.202;2023-11-21T11:01:42;32.15;;;9.45;;
16626;SDS011;8427;52.204;7.202;2023-11-21T11:04:12;26.17;;;8.88;;
16626;SDS011;8427;52.204;7.202;2023-11-21T11:06:43;30.73;;;9.38;;
16626;SDS011;8427;52.204;7.202;2023-11-21T11:09:11;24.17;;;8.52;;
16626;SDS011;8427;52.204;7.202;2023-11-21T11:11:43;27.35;;;9.05;;
16626;SDS011;8427;52.204;7.202;2023-11-21T11:14:11;29.20;;;10.00;;
16626;SDS011;8427;52.204;7.202;2023-11-21T11:16:41;29.80;;;9.65;;
16626;SDS011;8427;52.204;7.202;2023-11-21T11:19:10;33.53;;;9.93;;
16626;SDS011;8427;52.204;7.202;2023-11-21T11:21:44;33.80;;;10.10;;
16626;SDS011;8427;52.204;7.202;2023-11-21T11:24:23;27.75;;;8.77;;
16626;SDS011;8427;52.204;7.202;2023-11-21T11:27:01;32.25;;;9.43;;
16626;SDS011;8427;52.204;7.202;2023-11-21T11:29:41;26.05;;;8.98;;
16626;SDS011;8427;52.204;7.202;2023-11-21T11:32:19;28.52;;;10.02;;
16626;SDS011;8427;52.204;7.202;2023-11-21T11:34:58;33.78;;;10.95;;
16626;SDS011;8427;52.204;7.202;2023-11-21T11:37:31;27.23;;;9.18;;
16626;SDS011;8427;52.204;7.202;2023-11-21T11:39:59;24.73;;;8.50;;
16626;SDS011;8427;52.204;7.202;2023-11-21T11:42:27;24.60;;;9.20;;
16626;SDS011;8427;52.204;7.202;2023-11-21T11:44:56;25.42;;;8.93;;
16626;SDS011;8427;52.204;7.202;2023-11-21T11:47:27;27.15;;;9.38;;
16626;SDS011;8427;52.204;7.202;2023-11-21T11:50:01;23.52;;;8.95;;
16626;SDS011;8427;52.204;7.202;2023-11-21T11:52:35;22.63;;;8.45;;
16626;SDS011;8427;52.204;7.202;2023-11-21T11:55:06;20.40;;;8.15;;
16626;SDS011;8427;52.204;7.202;2023-11-21T11:57:37;18.67;;;7.75;;
16626;SDS011;8427;52.204;7.202;2023-11-21T12:00:12;19.77;;;8.00;;
16626;SDS011;8427;52.204;7.202;2023-11-21T12:02:46;19.77;;;7.55;;
16626;SDS011;8427;52.204;7.202;2023-11-21T12:05:15;21.33;;;8.40;;
16626;SDS011;8427;52.204;7.202;2023-11-21T12:07:45;23.38;;;8.40;;
16626;SDS011;8427;52.204;7.202;2023-11-21T12:10:16;20.65;;;8.65;;
16626;SDS011;8427;52.204;7.202;2023-11-21T12:12:45;23.20;;;8.63;;
16626;SDS011;8427;52.204;7.202;2023-11-21T12:15:14;19.42;;;7.70;;
16626;SDS011;8427;52.204;7.202;2023-11-21T12:17:42;20.25;;;7.93;;
16626;SDS011;8427;52.204;7.202;2023-11-21T12:20:13;21.00;;;8.35;;
16626;SDS011;8427;52.204;7.202;2023-11-21T12:22:43;21.45;;;8.32;;
16626;SDS011;8427;52.204;7.202;2023-11-21T12:25:14;20.33;;;8.32;;
16626;SDS011;8427;52.204;7.202;2023-11-21T12:27:45;21.38;;;8.55;;
16626;SDS011;8427;52.204;7.202;2023-11-21T12:30:16;20.88;;;8.25;;
16626;SDS011;8427;52.204;7.202;2023-11-21T12:32:47;20.55;;;8.35;;
16626;SDS011;8427;52.204;7.202;2023-11-21T12:35:18;21.27;;;8.35;;
16626;SDS011;8427;52.204;7.202;2023-11-21T12:37:47;23.20;;;10.00;;
16626;SDS011;8427;52.204;7.202;2023-11-21T12:40:16;23.33;;;10.48;;
16626;SDS011;8427;52.204;7.202;2023-11-21T12:42:45;23.23;;;10.10;;
16626;SDS011;8427;52.204;7.202;2023-11-21T12:45:21;21.88;;;9.80;;
16626;SDS011;8427;52.204;7.202;2023-11-21T12:47:53;21.15;;;9.55;;
16626;SDS011;8427;52.204;7.202;2023-11-21T12:50:25;19.13;;;8.68;;
16626;SDS011;8427;52.204;7.202;2023-11-21T12:52:58;19.05;;;9.25;;
16626;SDS011;8427;52.204;7.202;2023-11-21T12:55:29;19.20;;;9.05;;
16626;SDS011;8427;52.204;7.202;2023-11-21T12:58:00;20.52;;;9.13;;
16626;SDS011;8427;52.204;7.202;2023-11-21T13:00:35;20.83;;;8.60;;
16626;SDS011;8427;52.204;7.202;2023-11-21T13:03:04;16.75;;;8.93;;
16626;SDS011;8427;52.204;7.202;2023-11-21T13:05:35;17.70;;;8.85;;
16626;SDS011;8427;52.204;7.202;2023-11-21T13:08:06;19.33;;;8.57;;
16626;SDS011;8427;52.204;7.202;2023-11-21T13:10:36;18.48;;;8.52;;
16626;SDS011;8427;52.204;7.202;2023-11-21T13:13:06;19.27;;;8.90;;
16626;SDS011;8427;52.204;7.202;2023-11-21T13:15:38;20.17;;;8.55;;
16626;SDS011;8427;52.204;7.202;2023-11-21T13:18:06;17.38;;;8.13;;
16626;SDS011;8427;52.204;7.202;2023-11-21T13:20:38;17.63;;;8.48;;
16626;SDS011;8427;52.204;7.202;2023-11-21T13:23:07;17.33;;;8.05;;
16626;SDS011;8427;52.204;7.202;2023-11-21T13:25:38;15.50;;;8.00;;
16626;SDS011;8427;52.204;7.202;2023-11-21T13:28:08;16.90;;;8.05;;
16626;SDS011;8427;52.204;7.202;2023-11-21T13:30:37;14.27;;;7.72;;
16626;SDS011;8427;52.204;7.202;2023-11-21T13:33:07;13.70;;;7.87;;
16626;SDS011;8427;52.204;7.202;2023-11-21T13:35:37;15.45;;;8.32;;
16626;SDS011;8427;52.204;7.202;2023-11-21T13:38:09;13.15;;;8.00;;
16626;SDS011;8427;52.204;7.202;2023-11-21T13:40:39;15.52;;;7.93;;
16626;SDS011;8427;52.204;7.202;2023-11-21T13:43:11;16.63;;;8.60;;
16626;SDS011;8427;52.204;7.202;2023-11-21T13:48:10;16.27;;;7.53;;
16626;SDS011;8427;52.204;7.202;2023-11-21T13:50:41;13.35;;;7.57;;
16626;SDS011;8427;52.204;7.202;2023-11-21T13:53:15;13.77;;;7.63;;
16626;SDS011;8427;52.204;7.202;2023-11-21T13:55:48;12.35;;;6.85;;
16626;SDS011;8427;52.204;7.202;2023-11-21T13:58:16;14.23;;;6.75;;
16626;SDS011;8427;52.204;7.202;2023-11-21T14:00:48;12.20;;;6.80;;
16626;SDS011;8427;52.204;7.202;2023-11-21T14:03:22;12.18;;;6.72;;
16626;SDS011;8427;52.204;7.202;2023-11-21T14:06:00;11.57;;;6.45;;
16626;SDS011;8427;52.204;7.202;2023-11-21T14:08:34;9.15;;;5.40;;
16626;SDS011;8427;52.204;7.202;2023-11-21T14:11:02;10.13;;;6.10;;
16626;SDS011;8427;52.204;7.202;2023-11-21T14:13:33;12.43;;;6.07;;
16626;SDS011;8427;52.204;7.202;2023-11-21T14:16:01;10.25;;;5.80;;
16626;SDS011;8427;52.204;7.202;2023-11-21T14:18:29;20.00;;;7.13;;
16626;SDS011;8427;52.204;7.202;2023-11-21T14:21:06;13.18;;;6.38;;
16626;SDS011;8427;52.204;7.202;2023-11-21T14:23:36;11.07;;;6.20;;
16626;SDS011;8427;52.204;7.202;2023-11-21T14:26:04;10.90;;;6.10;;
16626;SDS011;8427;52.204;7.202;2023-11-21T14:28:33;13.68;;;5.78;;
16626;SDS011;8427;52.204;7.202;2023-11-21T14:31:02;10.32;;;5.47;;
16626;SDS011;8427;52.204;7.202;2023-11-21T14:33:30;11.43;;;5.88;;
16626;SDS011;8427;52.204;7.202;2023-11-21T14:35:58;10.38;;;5.63;;
16626;SDS011;8427;52.204;7.202;2023-11-21T14:38:28;11.50;;;6.15;;
16626;SDS011;8427;52.204;7.202;2023-11-21T14:40:55;12.52;;;6.40;;
16626;SDS011;8427;52.204;7.202;2023-11-21T14:43:24;11.85;;;6.40;;
16626;SDS011;8427;52.204;7.202;2023-11-21T14:45:52;11.10;;;6.40;;
16626;SDS011;8427;52.204;7.202;2023-11-21T14:48:22;11.10;;;6.15;;
16626;SDS011;8427;52.204;7.202;2023-11-21T14:51:08;13.40;;;6.30;;
16626;SDS011;8427;52.204;7.202;2023-11-21T14:53:58;14.40;;;6.90;;
16626;SDS011;8427;52.204;7.202;2023-11-21T14:56:32;11.95;;;6.28;;
16626;SDS011;8427;52.204;7.202;2023-11-21T14:59:01;10.98;;;6.38;;
16626;SDS011;8427;52.204;7.202;2023-11-21T15:01:35;11.60;;;6.15;;
16626;SDS011;8427;52.204;7.202;2023-11-21T15:04:12;16.08;;;7.15;;
16626;SDS011;8427;52.204;7.202;2023-11-21T15:06:51;13.20;;;6.70;;
16626;SDS011;8427;52.204;7.202;2023-11-21T15:09:23;12.48;;;6.32;;
16626;SDS011;8427;52.204;7.202;2023-11-21T15:12:02;12.27;;;6.35;;
16626;SDS011;8427;52.204;7.202;2023-11-21T15:14:40;12.70;;;6.60;;
16626;SDS011;8427;52.204;7.202;2023-11-21T15:17:09;13.82;;;6.97;;
16626;SDS011;8427;52.204;7.202;2023-11-21T15:22:07;10.73;;;6.20;;
16626;SDS011;8427;52.204;7.202;2023-11-21T15:27:08;15.52;;;7.07;;
16626;SDS011;8427;52.204;7.202;2023-11-21T15:29:35;12.43;;;6.68;;
16626;SDS011;8427;52.204;7.202;2023-11-21T15:32:05;13.65;;;7.28;;
16626;SDS011;8427;52.204;7.202;2023-11-21T15:34:33;12.80;;;7.27;;